»·PEaware :: 3A-MCH EGCC-EGLL

3A-MCH :: EGCC-EGLL

FLIGHT INFORMATION

Flight Status: Arrived
Operator: Privately registered:
Monaco
More flights under this callsign
Pilot: Timothy W. (9658)
Aircraft: ECLIPSE 500
(EA50)
More flights by this aircraft type
Origin: EGCC Manchester
United Kingdom
Destination: EGLL Heathrow
United Kingdom
More flights between these airports :: More routes between these airports
Route: SANB1Y SANBA N859 HON BNN4A
File this flight plan on PilotEdge
Remarks:
Altitude:
(Current/Filed)
19,000ft
Speed:
(Current/Filed)
263kts
Departed: 18-Aug-18 03:05 PM
Arrived: 18-Aug-18 03:45 PM
Distance/Time
Traveled:
132nm/0:40
Distance/Time
To Go:
Arrived

Flight Plot

Page will automatically refresh every two minutes.

Flight plan parsing failed; only flown route is shown


Map Options




Map Legend


Flown Route
Filed Route
Departure Airport
Arrival Airport
Navaid (VOR, NDB)
Fix

Horizontal Profiles

Position Reports

Time Latitude Longitude Heading Altitude Ground
Speed
18-Aug-18 14:51 53.355728 -2.281493 139 259ft 0kts
18-Aug-18 14:52 53.355728 -2.281493 139 259ft 0kts
18-Aug-18 14:53 53.355728 -2.281493 139 259ft 0kts
18-Aug-18 14:54 53.355728 -2.281493 139 259ft 0kts
18-Aug-18 14:55 53.355728 -2.281493 139 259ft 0kts
18-Aug-18 14:56 53.355728 -2.281493 139 259ft 0kts
18-Aug-18 14:57 53.355728 -2.281493 139 259ft 0kts
18-Aug-18 14:58 53.355728 -2.281493 139 259ft 0kts
18-Aug-18 14:59 53.355728 -2.281493 139 259ft 0kts
18-Aug-18 15:00 53.355728 -2.281493 139 259ft 0kts
18-Aug-18 15:01 53.355559 -2.281333 174 259ft 4kts
18-Aug-18 15:02 53.352702 -2.281858 186 259ft 10kts
18-Aug-18 15:03 53.352237 -2.281930 185 259ft 0kts
18-Aug-18 15:04 53.352053 -2.281969 187 259ft 5kts
18-Aug-18 15:05 53.348690 -2.278511 142 259ft 15kts
18-Aug-18 15:06 53.342274 -2.289515 231 273ft 114kts
18-Aug-18 15:07 53.319781 -2.344426 261 2126ft 156kts
18-Aug-18 15:08 53.328043 -2.414045 248 4404ft 152kts
18-Aug-18 15:09 53.282427 -2.448561 198 5003ft 238kts
18-Aug-18 15:10 53.217816 -2.406449 153 5001ft 264kts
18-Aug-18 15:11 53.153728 -2.348118 154 5000ft 262kts
18-Aug-18 15:12 53.089481 -2.291465 155 5789ft 264kts
18-Aug-18 15:13 53.022437 -2.233075 155 6838ft 282kts
18-Aug-18 15:14 52.952880 -2.172814 155 8302ft 284kts
18-Aug-18 15:15 52.882980 -2.112352 156 9807ft 283kts
18-Aug-18 15:16 52.813373 -2.052396 156 11313ft 281kts
18-Aug-18 15:17 52.744556 -1.993346 156 12815ft 279kts
18-Aug-18 15:18 52.676260 -1.934942 156 14325ft 274kts
18-Aug-18 15:19 52.610054 -1.878028 157 15810ft 269kts
18-Aug-18 15:20 52.545031 -1.821919 157 17293ft 261kts
18-Aug-18 15:21 52.481623 -1.767985 157 18569ft 260kts
18-Aug-18 15:22 52.415367 -1.712089 157 19153ft 284kts
18-Aug-18 15:23 52.343058 -1.642774 143 19156ft 322kts
18-Aug-18 15:24 52.275322 -1.548300 143 19154ft 318kts
18-Aug-18 15:25 52.209409 -1.456017 143 19048ft 320kts
18-Aug-18 15:26 52.143206 -1.363765 143 17776ft 312kts
18-Aug-18 15:27 52.077927 -1.272961 143 16476ft 306kts
18-Aug-18 15:28 52.014005 -1.184344 143 15181ft 300kts
18-Aug-18 15:29 51.951282 -1.097842 143 13961ft 292kts
18-Aug-18 15:30 51.890235 -1.014341 142 12975ft 287kts
18-Aug-18 15:31 51.839155 -0.917961 118 12018ft 287kts
18-Aug-18 15:32 51.804534 -0.803789 118 11191ft 283kts
18-Aug-18 15:33 51.770166 -0.690762 118 10385ft 279kts
18-Aug-18 15:34 51.736176 -0.579404 118 9580ft 275kts
18-Aug-18 15:35 51.694071 -0.479109 130 8780ft 269kts
18-Aug-18 15:36 51.649094 -0.384367 129 7914ft 265kts
18-Aug-18 15:37 51.604922 -0.291054 129 6995ft 261kts
18-Aug-18 15:38 51.561432 -0.199208 129 6224ft 243kts
18-Aug-18 15:39 51.525860 -0.124120 130 5920ft 203kts
18-Aug-18 15:40 51.487900 -0.145760 239 4876ft 182kts
18-Aug-18 15:41 51.478226 -0.222959 268 3386ft 177kts
18-Aug-18 15:42 51.478037 -0.291797 268 1906ft 140kts
18-Aug-18 15:43 51.477922 -0.344107 267 1171ft 97kts
18-Aug-18 15:44 51.477797 -0.385883 267 694ft 95kts
18-Aug-18 15:45 51.477679 -0.425719 267 223ft 94kts
18-Aug-18 15:46 51.476976 -0.451738 183 78ft 15kts
18-Aug-18 15:47 51.476364 -0.451747 180 78ft 0kts
18-Aug-18 15:48 51.476364 -0.451747 180 78ft 0kts
18-Aug-18 15:49 51.475981 -0.447828 90 78ft 14kts
18-Aug-18 15:50 51.475032 -0.445677 89 78ft 15kts
18-Aug-18 15:51 51.474742 -0.437657 169 78ft 13kts
18-Aug-18 15:52 51.471442 -0.436023 190 78ft 18kts
18-Aug-18 15:53 51.466765 -0.436025 179 78ft 14kts
18-Aug-18 15:54 51.466316 -0.436025 182 78ft 0kts
18-Aug-18 15:55 51.464952 -0.435226 145 78ft 18kts
18-Aug-18 15:56 51.463409 -0.435199 199 78ft 1kts
18-Aug-18 15:57 51.461682 -0.437909 177 78ft 9kts
18-Aug-18 15:58 51.461000 -0.437899 180 78ft 0kts
18-Aug-18 15:59 51.461000 -0.437899 180 78ft 0kts
18-Aug-18 16:00 51.461000 -0.437899 180 78ft 0kts
18-Aug-18 16:01 51.461000 -0.437899 180 78ft 0kts

Navigation Log

Ident Type
Flight plan parsing failed, navigation log unavailable